Warsaw, IN (46580)

9:46 AM EST on February 20, 2017 (GMT -0500)
Winona Lake | | Change Station
Active Advisory: Small Craft Advisory

Elev 820 ft 41.22 °N, 85.82 °W | Updated 9 minutes ago

Mist
Mist
47.5 °F
Feels Like 48 °F
N
3.0
Wind Variable Wind from ESE
Gusts 5.0 mph

Today
High -- | Low -- °F
--% Chance of Precip.
Yesterday
High -- | Low -- °F
Precip. -- in
Pressure 30.20 in
Visibility 1.5 miles
Clouds
Windchill 48 °F
Dew Point 46 °F
Humidity 94%
Rainfall 0.00 in
Snow Depth Not available.
7:30 AM 6:23 PM
Waning Crescent, 33% visible
METAR KASW 201435Z AUTO 12005KT 1 1/2SM BR VV007 07/06 A3020 RMK AO2
Pressure 30.20 in
Visibility 1.5 miles
Clouds
Windchill 48 °F
Dew Point 46 °F
Humidity 94%
Rainfall 0.00 in
Snow Depth Not available.
7:30 AM 6:23 PM
Waning Crescent, 33% visible
METAR KASW 201435Z AUTO 12005KT 1 1/2SM BR VV007 07/06 A3020 RMK AO2

Get Your Daily Forecast Email!

Thanks for signing up!

Be on the lookout for a verification email in your inbox.

You'll start receiving the daily forecast at 8 AM.

×

10-Day Weather Forecast

Almanac

Astronomy

Feb. 20, 2017 Rise Set
Actual Time
Civil Twilight
Nautical Twilight
Astronomical Twilight
Moon
Length of Visible Light
Length of Day
Tomorrow will be .
, % of the Moon is Illuminated

Today's Extremes

State Highs State Lows

Community

WunderPhotos

Upload Photos

1,962,540 photos uploaded!

WunderBlog® & News

Nearby

Air Quality

  Air Quality AQ Index Pollutant
Not available.

Snow Depth

Station Depth Elevation

Earthquake Activity

City Distance Mag. Time & Date
Minimum magnitude displayed is 2.5.

Coastal Water Temperatures

Place Temperature

Stations

Nearby Weather Stations

Station Location Temp. Windchill Dew Point Humidity Wind Precip. Elev Updated Type
                   

Watches & Warnings

Small Craft Advisory
Issued: 4:18 AM EST Feb. 20, 2017 – National Weather Service

... Small Craft Advisory in effect from 4 PM this afternoon to
4 am EST Tuesday...

The National Weather Service in northern Indiana has issued a
Small Craft Advisory... which is in effect from 4 PM this
afternoon to 4 am EST Tuesday.

* Winds: southeast 10 to 20 knots... veering south after midnight.
Gusts up to 25 knots.

* Waves: 1 to 4 feet.

Precautionary/preparedness actions...

A Small Craft Advisory means that sustained winds or frequent
gusts of 22 to 33 knots are likely... and/or waves greater than
4 feet are expected. Inexperienced mariners... especially those
operating smaller vessels should avoid navigating in these
conditions.